sensor_id;sensor_type;location;lat;lon;timestamp;pressure;altitude;pressure_sealevel;temperature;humidity
8717;BME280;4395;48.554;8.820;2023-03-22T00:01:31;95675.88;;;10.30;100.00
8717;BME280;4395;48.554;8.820;2023-03-22T00:03:36;95742.84;;;10.63;100.00
8717;BME280;4395;48.554;8.820;2023-03-22T00:05:39;95701.19;;;10.34;100.00
8717;BME280;4395;48.554;8.820;2023-03-22T00:07:42;95738.47;;;10.57;100.00
8717;BME280;4395;48.554;8.820;2023-03-22T00:09:45;95733.88;;;10.53;100.00
8717;BME280;4395;48.554;8.820;2023-03-22T00:11:48;95614.31;;;9.64;100.00
8717;BME280;4395;48.554;8.820;2023-03-22T00:13:51;95728.03;;;10.34;100.00
8717;BME280;4395;48.554;8.820;2023-03-22T00:15:55;95729.09;;;10.33;100.00
8717;BME280;4395;48.554;8.820;2023-03-22T00:18:00;95722.34;;;10.30;100.00
8717;BME280;4395;48.554;8.820;2023-03-22T00:20:06;95617.00;;;9.64;100.00
8717;BME280;4395;48.554;8.820;2023-03-22T00:22:09;95728.50;;;10.26;100.00
8717;BME280;4395;48.554;8.820;2023-03-22T00:24:12;95724.69;;;10.22;100.00
8717;BME280;4395;48.554;8.820;2023-03-22T00:26:15;95723.56;;;10.18;100.00
8717;BME280;4395;48.554;8.820;2023-03-22T00:28:18;95724.06;;;10.15;100.00
8717;BME280;4395;48.554;8.820;2023-03-22T00:30:21;95732.31;;;10.08;100.00
8717;BME280;4395;48.554;8.820;2023-03-22T00:32:25;95695.22;;;9.78;100.00
8717;BME280;4395;48.554;8.820;2023-03-22T00:34:30;95720.66;;;9.97;100.00
8717;BME280;4395;48.554;8.820;2023-03-22T00:36:35;95725.66;;;9.89;100.00
8717;BME280;4395;48.554;8.820;2023-03-22T00:38:38;95729.34;;;9.83;100.00
8717;BME280;4395;48.554;8.820;2023-03-22T00:40:44;95722.06;;;9.78;100.00
8717;BME280;4395;48.554;8.820;2023-03-22T00:42:47;95700.41;;;9.63;100.00
8717;BME280;4395;48.554;8.820;2023-03-22T00:44:50;95720.63;;;9.71;100.00
8717;BME280;4395;48.554;8.820;2023-03-22T00:46:53;95698.31;;;9.43;100.00
8717;BME280;4395;48.554;8.820;2023-03-22T00:48:56;95708.16;;;9.59;100.00
8717;BME280;4395;48.554;8.820;2023-03-22T00:50:59;95713.78;;;9.58;100.00
8717;BME280;4395;48.554;8.820;2023-03-22T00:53:06;95679.91;;;9.30;100.00
8717;BME280;4395;48.554;8.820;2023-03-22T00:55:09;95694.06;;;9.25;100.00
8717;BME280;4395;48.554;8.820;2023-03-22T00:57:12;95712.16;;;9.35;100.00
8717;BME280;4395;48.554;8.820;2023-03-22T00:59:15;95640.28;;;8.72;100.00
8717;BME280;4395;48.554;8.820;2023-03-22T01:01:18;95711.59;;;9.33;100.00
8717;BME280;4395;48.554;8.820;2023-03-22T01:03:23;95712.28;;;9.23;100.00
8717;BME280;4395;48.554;8.820;2023-03-22T01:05:29;95614.66;;;8.59;100.00
8717;BME280;4395;48.554;8.820;2023-03-22T01:07:33;95705.16;;;9.12;100.00
8717;BME280;4395;48.554;8.820;2023-03-22T01:09:40;95693.47;;;9.01;100.00
8717;BME280;4395;48.554;8.820;2023-03-22T01:11:42;95720.28;;;9.01;100.00
8717;BME280;4395;48.554;8.820;2023-03-22T01:13:45;95698.53;;;8.98;100.00
8717;BME280;4395;48.554;8.820;2023-03-22T01:15:49;95694.88;;;8.87;100.00
8717;BME280;4395;48.554;8.820;2023-03-22T01:17:52;95687.19;;;8.74;100.00
8717;BME280;4395;48.554;8.820;2023-03-22T01:19:55;95576.13;;;8.10;100.00
8717;BME280;4395;48.554;8.820;2023-03-22T01:21:58;95673.38;;;8.82;100.00
8717;BME280;4395;48.554;8.820;2023-03-22T01:24:01;95678.94;;;8.59;100.00
8717;BME280;4395;48.554;8.820;2023-03-22T01:26:06;95673.91;;;8.62;100.00
8717;BME280;4395;48.554;8.820;2023-03-22T01:28:10;95670.72;;;8.65;100.00
8717;BME280;4395;48.554;8.820;2023-03-22T01:30:13;95671.59;;;8.71;100.00
8717;BME280;4395;48.554;8.820;2023-03-22T01:32:16;95590.97;;;8.17;100.00
8717;BME280;4395;48.554;8.820;2023-03-22T01:34:20;95669.09;;;8.64;100.00
8717;BME280;4395;48.554;8.820;2023-03-22T01:36:24;95580.28;;;8.00;100.00
8717;BME280;4395;48.554;8.820;2023-03-22T01:38:27;95669.03;;;8.59;100.00
8717;BME280;4395;48.554;8.820;2023-03-22T01:40:33;95553.72;;;7.65;100.00
8717;BME280;4395;48.554;8.820;2023-03-22T01:42:38;95567.59;;;7.79;100.00
8717;BME280;4395;48.554;8.820;2023-03-22T01:47:21;95667.94;;;8.27;100.00
8717;BME280;4395;48.554;8.820;2023-03-22T01:49:26;95624.13;;;7.83;100.00
8717;BME280;4395;48.554;8.820;2023-03-22T01:51:32;95663.88;;;8.07;100.00
8717;BME280;4395;48.554;8.820;2023-03-22T01:53:47;95657.06;;;8.00;100.00
8717;BME280;4395;48.554;8.820;2023-03-22T01:55:53;95657.47;;;8.09;100.00
8717;BME280;4395;48.554;8.820;2023-03-22T01:58:05;95656.50;;;8.15;100.00
8717;BME280;4395;48.554;8.820;2023-03-22T02:00:21;95665.13;;;8.17;100.00
8717;BME280;4395;48.554;8.820;2023-03-22T02:02:46;95620.91;;;7.97;100.00
8717;BME280;4395;48.554;8.820;2023-03-22T02:04:58;95652.28;;;8.19;100.00
8717;BME280;4395;48.554;8.820;2023-03-22T02:07:06;95642.00;;;8.11;100.00
8717;BME280;4395;48.554;8.820;2023-03-22T02:09:13;95564.25;;;7.55;100.00
8717;BME280;4395;48.554;8.820;2023-03-22T02:11:20;95651.06;;;8.10;100.00
8717;BME280;4395;48.554;8.820;2023-03-22T02:13:46;95636.06;;;8.09;100.00
8717;BME280;4395;48.554;8.820;2023-03-22T02:16:27;95642.00;;;8.11;100.00
8717;BME280;4395;48.554;8.820;2023-03-22T02:18:47;95602.81;;;7.88;100.00
8717;BME280;4395;48.554;8.820;2023-03-22T02:21:25;95640.28;;;8.04;100.00
8717;BME280;4395;48.554;8.820;2023-03-22T02:24:02;95621.38;;;7.94;100.00
8717;BME280;4395;48.554;8.820;2023-03-22T02:26:50;95639.22;;;8.05;100.00
8717;BME280;4395;48.554;8.820;2023-03-22T02:29:01;95639.47;;;8.04;100.00
8717;BME280;4395;48.554;8.820;2023-03-22T02:31:26;95638.19;;;8.06;100.00
8717;BME280;4395;48.554;8.820;2023-03-22T02:33:56;95637.38;;;8.06;100.00
8717;BME280;4395;48.554;8.820;2023-03-22T02:36:18;95626.91;;;8.04;100.00
8717;BME280;4395;48.554;8.820;2023-03-22T02:38:56;95637.38;;;8.06;100.00
8717;BME280;4395;48.554;8.820;2023-03-22T02:41:10;95635.25;;;8.08;100.00
8717;BME280;4395;48.554;8.820;2023-03-22T02:43:20;95634.44;;;8.07;100.00
8717;BME280;4395;48.554;8.820;2023-03-22T02:45:32;95627.47;;;8.06;100.00
8717;BME280;4395;48.554;8.820;2023-03-22T02:47:40;95628.44;;;8.00;100.00
8717;BME280;4395;48.554;8.820;2023-03-22T02:49:48;95628.44;;;8.00;100.00
8717;BME280;4395;48.554;8.820;2023-03-22T02:51:57;95367.09;;;6.22;100.00
8717;BME280;4395;48.554;8.820;2023-03-22T02:54:07;95606.97;;;7.67;100.00
8717;BME280;4395;48.554;8.820;2023-03-22T02:56:17;95638.97;;;7.62;100.00
8717;BME280;4395;48.554;8.820;2023-03-22T02:58:24;95642.13;;;7.59;100.00
8717;BME280;4395;48.554;8.820;2023-03-22T03:00:29;95632.56;;;7.63;100.00
8717;BME280;4395;48.554;8.820;2023-03-22T03:02:33;95633.88;;;7.60;100.00
8717;BME280;4395;48.554;8.820;2023-03-22T03:04:41;95593.91;;;7.25;100.00
8717;BME280;4395;48.554;8.820;2023-03-22T03:06:47;95439.22;;;6.27;100.00
8717;BME280;4395;48.554;8.820;2023-03-22T03:08:53;95597.16;;;7.27;100.00
8717;BME280;4395;48.554;8.820;2023-03-22T03:11:01;95565.84;;;7.11;100.00
8717;BME280;4395;48.554;8.820;2023-03-22T03:13:04;95605.66;;;7.53;100.00
8717;BME280;4395;48.554;8.820;2023-03-22T03:15:11;95624.69;;;7.56;100.00
8717;BME280;4395;48.554;8.820;2023-03-22T03:17:24;95542.81;;;6.93;100.00
8717;BME280;4395;48.554;8.820;2023-03-22T03:19:36;95508.88;;;6.65;100.00
8717;BME280;4395;48.554;8.820;2023-03-22T03:21:47;95639.66;;;7.40;100.00
8717;BME280;4395;48.554;8.820;2023-03-22T03:24:00;95634.97;;;7.48;100.00
8717;BME280;4395;48.554;8.820;2023-03-22T03:26:11;95572.81;;;7.12;100.00
8717;BME280;4395;48.554;8.820;2023-03-22T03:28:20;95638.31;;;7.55;100.00
8717;BME280;4395;48.554;8.820;2023-03-22T03:30:33;95649.72;;;7.50;100.00
8717;BME280;4395;48.554;8.820;2023-03-22T03:32:43;95616.81;;;7.50;100.00
8717;BME280;4395;48.554;8.820;2023-03-22T03:34:51;95644.00;;;7.58;100.00
8717;BME280;4395;48.554;8.820;2023-03-22T03:37:00;95648.88;;;7.61;100.00
8717;BME280;4395;48.554;8.820;2023-03-22T03:39:08;95645.38;;;7.61;100.00
8717;BME280;4395;48.554;8.820;2023-03-22T03:41:16;95642.66;;;7.72;100.00
8717;BME280;4395;48.554;8.820;2023-03-22T03:43:20;95474.19;;;6.54;100.00
8717;BME280;4395;48.554;8.820;2023-03-22T03:45:26;95648.44;;;7.53;100.00
8717;BME280;4395;48.554;8.820;2023-03-22T03:47:31;95643.19;;;7.58;100.00
8717;BME280;4395;48.554;8.820;2023-03-22T03:49:34;95652.16;;;7.52;100.00
8717;BME280;4395;48.554;8.820;2023-03-22T03:51:46;95652.25;;;7.57;100.00
8717;BME280;4395;48.554;8.820;2023-03-22T03:53:49;95668.41;;;7.62;100.00
8717;BME280;4395;48.554;8.820;2023-03-22T03:55:54;95610.72;;;7.09;100.00
8717;BME280;4395;48.554;8.820;2023-03-22T03:57:59;95653.53;;;7.54;100.00
8717;BME280;4395;48.554;8.820;2023-03-22T04:00:03;95649.59;;;7.57;100.00
8717;BME280;4395;48.554;8.820;2023-03-22T04:02:42;95650.09;;;7.42;100.00
8717;BME280;4395;48.554;8.820;2023-03-22T04:05:00;95635.16;;;7.29;100.00
8717;BME280;4395;48.554;8.820;2023-03-22T04:07:05;95665.81;;;7.38;100.00
8717;BME280;4395;48.554;8.820;2023-03-22T04:09:10;95660.84;;;7.30;100.00
8717;BME280;4395;48.554;8.820;2023-03-22T04:11:18;95660.59;;;7.32;100.00
8717;BME280;4395;48.554;8.820;2023-03-22T04:13:25;95645.94;;;7.34;100.00
8717;BME280;4395;48.554;8.820;2023-03-22T04:15:33;95648.97;;;7.38;100.00
8717;BME280;4395;48.554;8.820;2023-03-22T04:17:40;95635.44;;;7.45;100.00
8717;BME280;4395;48.554;8.820;2023-03-22T04:19:44;95546.56;;;6.81;100.00
8717;BME280;4395;48.554;8.820;2023-03-22T04:21:47;95607.19;;;7.20;100.00
8717;BME280;4395;48.554;8.820;2023-03-22T04:23:50;95521.50;;;6.70;100.00
8717;BME280;4395;48.554;8.820;2023-03-22T04:25:53;95635.44;;;7.45;100.00
8717;BME280;4395;48.554;8.820;2023-03-22T04:28:10;95628.00;;;7.47;100.00
8717;BME280;4395;48.554;8.820;2023-03-22T04:30:16;95457.91;;;6.27;100.00
8717;BME280;4395;48.554;8.820;2023-03-22T04:32:36;95628.84;;;7.35;100.00
8717;BME280;4395;48.554;8.820;2023-03-22T04:34:39;95622.28;;;7.26;100.00
8717;BME280;4395;48.554;8.820;2023-03-22T04:36:47;95634.38;;;7.17;100.00
8717;BME280;4395;48.554;8.820;2023-03-22T04:39:09;95631.72;;;7.17;100.00
8717;BME280;4395;48.554;8.820;2023-03-22T04:41:17;95630.91;;;7.17;100.00
8717;BME280;4395;48.554;8.820;2023-03-22T04:43:24;95623.72;;;7.05;100.00
8717;BME280;4395;48.554;8.820;2023-03-22T04:45:35;95630.47;;;7.08;100.00
8717;BME280;4395;48.554;8.820;2023-03-22T04:47:39;95629.31;;;7.04;100.00
8717;BME280;4395;48.554;8.820;2023-03-22T04:49:42;95516.84;;;6.37;100.00
8717;BME280;4395;48.554;8.820;2023-03-22T04:51:45;95543.03;;;6.52;100.00
8717;BME280;4395;48.554;8.820;2023-03-22T04:54:08;95595.09;;;6.89;100.00
8717;BME280;4395;48.554;8.820;2023-03-22T04:56:14;95614.66;;;7.06;100.00
8717;BME280;4395;48.554;8.820;2023-03-22T04:58:18;95617.09;;;7.08;100.00
8717;BME280;4395;48.554;8.820;2023-03-22T05:00:23;95614.91;;;7.05;100.00
8717;BME280;4395;48.554;8.820;2023-03-22T05:02:28;95605.84;;;7.06;100.00
8717;BME280;4395;48.554;8.820;2023-03-22T05:04:32;95605.84;;;7.06;100.00
8717;BME280;4395;48.554;8.820;2023-03-22T05:06:42;95616.06;;;7.09;100.00
8717;BME280;4395;48.554;8.820;2023-03-22T05:08:53;95556.56;;;6.73;100.00
8717;BME280;4395;48.554;8.820;2023-03-22T05:10:58;95595.78;;;6.85;100.00
8717;BME280;4395;48.554;8.820;2023-03-22T05:13:02;95603.63;;;7.03;100.00
8717;BME280;4395;48.554;8.820;2023-03-22T05:15:10;95603.88;;;7.01;100.00
8717;BME280;4395;48.554;8.820;2023-03-22T05:17:13;95607.25;;;6.97;100.00
8717;BME280;4395;48.554;8.820;2023-03-22T05:19:19;95600.88;;;6.98;100.00
8717;BME280;4395;48.554;8.820;2023-03-22T05:21:24;95637.22;;;6.99;100.00
8717;BME280;4395;48.554;8.820;2023-03-22T05:23:31;95512.91;;;6.28;100.00
8717;BME280;4395;48.554;8.820;2023-03-22T05:25:34;95607.72;;;6.94;100.00
8717;BME280;4395;48.554;8.820;2023-03-22T05:27:37;95552.31;;;6.61;100.00
8717;BME280;4395;48.554;8.820;2023-03-22T05:29:58;95602.84;;;6.91;100.00
8717;BME280;4395;48.554;8.820;2023-03-22T05:32:14;95591.59;;;6.89;100.00
8717;BME280;4395;48.554;8.820;2023-03-22T05:34:22;95604.97;;;6.89;100.00
8717;BME280;4395;48.554;8.820;2023-03-22T05:36:25;95599.63;;;6.89;100.00
8717;BME280;4395;48.554;8.820;2023-03-22T05:38:50;95598.81;;;6.88;100.00
8717;BME280;4395;48.554;8.820;2023-03-22T05:40:53;95592.66;;;6.88;100.00
8717;BME280;4395;48.554;8.820;2023-03-22T05:42:56;95597.75;;;6.89;100.00
8717;BME280;4395;48.554;8.820;2023-03-22T05:45:00;95595.91;;;6.90;100.00
8717;BME280;4395;48.554;8.820;2023-03-22T05:47:03;95592.69;;;6.76;100.00
8717;BME280;4395;48.554;8.820;2023-03-22T05:49:10;95561.03;;;6.56;100.00
8717;BME280;4395;48.554;8.820;2023-03-22T05:51:15;95562.41;;;6.59;100.00
8717;BME280;4395;48.554;8.820;2023-03-22T05:53:22;95606.47;;;6.85;100.00
8717;BME280;4395;48.554;8.820;2023-03-22T05:55:30;95603.34;;;6.88;100.00
8717;BME280;4395;48.554;8.820;2023-03-22T05:57:37;95585.00;;;6.80;100.00
8717;BME280;4395;48.554;8.820;2023-03-22T05:59:41;95608.19;;;6.91;100.00
8717;BME280;4395;48.554;8.820;2023-03-22T06:01:50;95613.31;;;6.92;100.00
8717;BME280;4395;48.554;8.820;2023-03-22T06:03:56;95496.00;;;6.10;100.00
8717;BME280;4395;48.554;8.820;2023-03-22T06:06:09;95605.53;;;6.91;100.00
8717;BME280;4395;48.554;8.820;2023-03-22T06:08:20;95607.25;;;6.97;100.00
8717;BME280;4395;48.554;8.820;2023-03-22T06:10:27;95612.72;;;7.02;100.00
8717;BME280;4395;48.554;8.820;2023-03-22T06:12:30;95606.47;;;6.85;100.00
8717;BME280;4395;48.554;8.820;2023-03-22T06:14:40;95598.94;;;6.82;100.00
8717;BME280;4395;48.554;8.820;2023-03-22T06:16:53;95607.03;;;6.98;100.00
8717;BME280;4395;48.554;8.820;2023-03-22T06:18:56;95616.63;;;7.11;100.00
8717;BME280;4395;48.554;8.820;2023-03-22T06:20:59;95607.09;;;7.15;100.00
8717;BME280;4395;48.554;8.820;2023-03-22T06:23:02;95609.97;;;7.25;100.00
8717;BME280;4395;48.554;8.820;2023-03-22T06:25:09;95632.72;;;7.28;100.00
8717;BME280;4395;48.554;8.820;2023-03-22T06:27:18;95626.53;;;7.39;100.00
8717;BME280;4395;48.554;8.820;2023-03-22T06:29:22;95628.56;;;7.49;100.00
8717;BME280;4395;48.554;8.820;2023-03-22T06:31:28;95624.75;;;7.45;100.00
8717;BME280;4395;48.554;8.820;2023-03-22T06:33:52;95630.97;;;7.62;100.00
8717;BME280;4395;48.554;8.820;2023-03-22T06:36:09;95632.56;;;7.63;100.00
8717;BME280;4395;48.554;8.820;2023-03-22T06:38:26;95632.63;;;7.51;100.00
8717;BME280;4395;48.554;8.820;2023-03-22T06:40:31;95625.06;;;7.77;100.00
8717;BME280;4395;48.554;8.820;2023-03-22T06:42:33;95588.25;;;7.67;100.00
8717;BME280;4395;48.554;8.820;2023-03-22T06:44:42;95604.69;;;7.87;100.00
8717;BME280;4395;48.554;8.820;2023-03-22T06:46:57;95637.84;;;8.20;100.00
8717;BME280;4395;48.554;8.820;2023-03-22T06:49:15;95620.34;;;8.29;100.00
8717;BME280;4395;48.554;8.820;2023-03-22T06:51:20;95493.66;;;7.56;100.00
8717;BME280;4395;48.554;8.820;2023-03-22T06:53:25;95626.44;;;8.41;100.00
8717;BME280;4395;48.554;8.820;2023-03-22T06:55:28;95593.75;;;8.39;100.00
8717;BME280;4395;48.554;8.820;2023-03-22T06:57:39;95620.31;;;8.62;100.00
8717;BME280;4395;48.554;8.820;2023-03-22T06:59:43;95574.31;;;8.32;100.00
8717;BME280;4395;48.554;8.820;2023-03-22T07:01:46;95632.94;;;8.84;100.00
8717;BME280;4395;48.554;8.820;2023-03-22T07:03:50;95517.63;;;8.35;100.00
8717;BME280;4395;48.554;8.820;2023-03-22T07:06:00;95600.91;;;8.94;100.00
8717;BME280;4395;48.554;8.820;2023-03-22T07:08:05;95619.97;;;9.19;100.00
8717;BME280;4395;48.554;8.820;2023-03-22T07:10:13;95582.88;;;9.11;100.00
8717;BME280;4395;48.554;8.820;2023-03-22T07:12:16;95567.56;;;9.07;100.00
8717;BME280;4395;48.554;8.820;2023-03-22T07:14:21;95626.00;;;9.53;100.00
8717;BME280;4395;48.554;8.820;2023-03-22T07:16:34;95628.22;;;9.61;100.00
8717;BME280;4395;48.554;8.820;2023-03-22T07:18:39;95615.97;;;9.71;100.00
8717;BME280;4395;48.554;8.820;2023-03-22T07:20:44;95615.56;;;9.84;100.00
8717;BME280;4395;48.554;8.820;2023-03-22T07:22:48;95622.66;;;9.95;100.00
8717;BME280;4395;48.554;8.820;2023-03-22T07:24:53;95617.06;;;10.02;100.00
8717;BME280;4395;48.554;8.820;2023-03-22T07:27:02;95619.28;;;10.10;100.00
8717;BME280;4395;48.554;8.820;2023-03-22T07:29:06;95620.66;;;10.12;100.00
8717;BME280;4395;48.554;8.820;2023-03-22T07:31:11;95626.69;;;10.24;100.00
8717;BME280;4395;48.554;8.820;2023-03-22T07:33:34;95597.66;;;10.21;100.00
8717;BME280;4395;48.554;8.820;2023-03-22T07:35:37;95619.00;;;10.38;100.00
8717;BME280;4395;48.554;8.820;2023-03-22T07:37:40;95624.34;;;10.33;100.00
8717;BME280;4395;48.554;8.820;2023-03-22T07:39:52;95615.44;;;10.27;100.00
8717;BME280;4395;48.554;8.820;2023-03-22T07:41:56;95582.22;;;10.07;100.00
8717;BME280;4395;48.554;8.820;2023-03-22T07:43:59;95615.84;;;10.41;100.00
8717;BME280;4395;48.554;8.820;2023-03-22T07:46:25;95612.91;;;10.43;100.00
8717;BME280;4395;48.554;8.820;2023-03-22T07:48:45;95625.34;;;10.54;100.00
8717;BME280;4395;48.554;8.820;2023-03-22T07:51:08;95624.28;;;10.60;100.00
8717;BME280;4395;48.554;8.820;2023-03-22T07:53:11;95615.16;;;10.61;100.00
8717;BME280;4395;48.554;8.820;2023-03-22T07:55:14;95627.75;;;10.55;100.00
8717;BME280;4395;48.554;8.820;2023-03-22T07:57:17;95624.25;;;10.55;100.00
8717;BME280;4395;48.554;8.820;2023-03-22T07:59:29;95363.16;;;8.89;100.00
8717;BME280;4395;48.554;8.820;2023-03-22T08:01:34;95620.84;;;10.65;100.00
8717;BME280;4395;48.554;8.820;2023-03-22T08:03:51;95629.00;;;10.80;99.46
8717;BME280;4395;48.554;8.820;2023-03-22T08:06:06;95525.41;;;10.20;98.57
8717;BME280;4395;48.554;8.820;2023-03-22T08:08:11;95623.78;;;11.10;97.25
8717;BME280;4395;48.554;8.820;2023-03-22T08:10:14;95502.38;;;10.29;97.18
8717;BME280;4395;48.554;8.820;2023-03-22T08:12:17;95639.41;;;11.18;97.83
8717;BME280;4395;48.554;8.820;2023-03-22T08:14:25;95594.94;;;10.95;97.58
8717;BME280;4395;48.554;8.820;2023-03-22T08:16:40;95629.00;;;11.37;96.83
8717;BME280;4395;48.554;8.820;2023-03-22T08:18:45;95548.03;;;10.71;97.18
8717;BME280;4395;48.554;8.820;2023-03-22T08:20:52;95643.25;;;11.38;96.74
8717;BME280;4395;48.554;8.820;2023-03-22T08:22:55;95630.38;;;11.45;97.58
8717;BME280;4395;48.554;8.820;2023-03-22T08:25:00;95631.47;;;11.54;96.82
8717;BME280;4395;48.554;8.820;2023-03-22T08:27:07;95635.81;;;11.65;96.45
8717;BME280;4395;48.554;8.820;2023-03-22T08:29:18;95628.34;;;11.77;95.95
8717;BME280;4395;48.554;8.820;2023-03-22T08:31:24;95630.78;;;11.94;95.57
8717;BME280;4395;48.554;8.820;2023-03-22T08:33:29;95631.88;;;12.03;94.75
8717;BME280;4395;48.554;8.820;2023-03-22T08:35:32;95629.47;;;12.12;94.85
8717;BME280;4395;48.554;8.820;2023-03-22T08:37:35;95530.31;;;11.68;93.95
8717;BME280;4395;48.554;8.820;2023-03-22T08:39:42;95623.00;;;12.38;93.97
8717;BME280;4395;48.554;8.820;2023-03-22T08:41:58;95612.50;;;12.47;91.67
8717;BME280;4395;48.554;8.820;2023-03-22T08:44:02;95615.97;;;12.52;92.60
8717;BME280;4395;48.554;8.820;2023-03-22T08:46:08;95589.03;;;12.47;92.75
8717;BME280;4395;48.554;8.820;2023-03-22T08:48:11;95622.97;;;12.69;92.48
8717;BME280;4395;48.554;8.820;2023-03-22T08:50:41;95615.94;;;12.78;91.57
8717;BME280;4395;48.554;8.820;2023-03-22T08:52:53;95627.81;;;12.82;91.99
8717;BME280;4395;48.554;8.820;2023-03-22T08:55:04;95597.31;;;12.86;90.47
8717;BME280;4395;48.554;8.820;2023-03-22T08:57:26;95618.88;;;13.17;90.12
8717;BME280;4395;48.554;8.820;2023-03-22T08:59:49;95614.47;;;13.41;89.86
8717;BME280;4395;48.554;8.820;2023-03-22T09:02:00;95617.94;;;13.47;87.41
8717;BME280;4395;48.554;8.820;2023-03-22T09:04:03;95609.47;;;14.08;100.00
8717;BME280;4395;48.554;8.820;2023-03-22T09:06:08;95578.75;;;13.99;85.14
8717;BME280;4395;48.554;8.820;2023-03-22T09:08:13;95605.22;;;13.97;85.25
8717;BME280;4395;48.554;8.820;2023-03-22T09:10:22;95612.00;;;13.94;87.39
8717;BME280;4395;48.554;8.820;2023-03-22T09:12:25;95542.84;;;13.54;87.40
8717;BME280;4395;48.554;8.820;2023-03-22T09:14:30;95595.81;;;14.28;85.52
8717;BME280;4395;48.554;8.820;2023-03-22T09:16:33;95596.53;;;14.44;82.12
8717;BME280;4395;48.554;8.820;2023-03-22T09:18:36;95592.97;;;14.48;82.48
8717;BME280;4395;48.554;8.820;2023-03-22T09:20:45;95589.03;;;14.65;81.72
8717;BME280;4395;48.554;8.820;2023-03-22T09:22:53;95584.72;;;14.64;80.31
8717;BME280;4395;48.554;8.820;2023-03-22T09:24:57;95589.75;;;14.75;79.87
8717;BME280;4395;48.554;8.820;2023-03-22T09:27:01;95592.53;;;14.94;80.81
8717;BME280;4395;48.554;8.820;2023-03-22T09:29:03;95581.34;;;15.01;78.17
8717;BME280;4395;48.554;8.820;2023-03-22T09:31:08;95538.88;;;14.77;78.07
8717;BME280;4395;48.554;8.820;2023-03-22T09:33:12;95570.66;;;15.15;78.29
8717;BME280;4395;48.554;8.820;2023-03-22T09:35:18;95601.72;;;15.41;75.53
8717;BME280;4395;48.554;8.820;2023-03-22T09:37:28;95595.84;;;15.58;74.83
8717;BME280;4395;48.554;8.820;2023-03-22T09:39:33;95593.56;;;15.70;72.01
8717;BME280;4395;48.554;8.820;2023-03-22T09:41:43;95600.06;;;15.88;70.69
8717;BME280;4395;48.554;8.820;2023-03-22T09:43:50;95595.66;;;15.49;67.01
8717;BME280;4395;48.554;8.820;2023-03-22T09:45:55;95583.13;;;15.58;67.65
8717;BME280;4395;48.554;8.820;2023-03-22T09:47:58;95586.59;;;15.83;67.07
8717;BME280;4395;48.554;8.820;2023-03-22T09:50:06;95584.34;;;15.90;63.60
8717;BME280;4395;48.554;8.820;2023-03-22T09:52:13;95580.81;;;16.08;63.78
8717;BME280;4395;48.554;8.820;2023-03-22T09:54:19;95572.31;;;15.77;64.06
8717;BME280;4395;48.554;8.820;2023-03-22T09:56:26;95583.81;;;15.88;65.04
8717;BME280;4395;48.554;8.820;2023-03-22T09:58:34;95579.56;;;16.19;64.67
8717;BME280;4395;48.554;8.820;2023-03-22T10:00:41;95559.66;;;17.02;59.97
8717;BME280;4395;48.554;8.820;2023-03-22T10:02:53;95572.31;;;16.80;59.48
8717;BME280;4395;48.554;8.820;2023-03-22T10:05:03;95547.97;;;16.75;57.97
8717;BME280;4395;48.554;8.820;2023-03-22T10:07:22;95564.56;;;16.73;56.95
8717;BME280;4395;48.554;8.820;2023-03-22T10:09:30;95551.44;;;16.61;60.04
8717;BME280;4395;48.554;8.820;2023-03-22T10:11:41;95550.31;;;16.49;59.06
8717;BME280;4395;48.554;8.820;2023-03-22T10:13:50;95553.56;;;16.64;58.12
8717;BME280;4395;48.554;8.820;2023-03-22T10:15:58;95566.50;;;16.86;56.92
8717;BME280;4395;48.554;8.820;2023-03-22T10:18:07;95465.88;;;16.09;55.91
8717;BME280;4395;48.554;8.820;2023-03-22T10:20:20;95547.59;;;16.95;57.68
8717;BME280;4395;48.554;8.820;2023-03-22T10:22:30;95371.47;;;15.84;54.95
8717;BME280;4395;48.554;8.820;2023-03-22T10:24:37;95557.66;;;17.22;55.87
8717;BME280;4395;48.554;8.820;2023-03-22T10:26:45;95549.09;;;17.15;54.85
8717;BME280;4395;48.554;8.820;2023-03-22T10:28:54;95542.72;;;17.60;53.59
8717;BME280;4395;48.554;8.820;2023-03-22T10:31:00;95541.03;;;18.00;51.97
8717;BME280;4395;48.554;8.820;2023-03-22T10:33:12;95534.78;;;18.00;48.97
8717;BME280;4395;48.554;8.820;2023-03-22T10:35:16;95423.69;;;17.26;48.73
8717;BME280;4395;48.554;8.820;2023-03-22T10:37:20;95522.69;;;18.06;47.84
8717;BME280;4395;48.554;8.820;2023-03-22T10:39:29;95524.53;;;18.19;46.33
8717;BME280;4395;48.554;8.820;2023-03-22T10:41:33;95528.28;;;18.23;47.15
8717;BME280;4395;48.554;8.820;2023-03-22T10:43:39;95508.72;;;18.44;45.68
8717;BME280;4395;48.554;8.820;2023-03-22T10:45:43;95530.41;;;18.57;45.39
8717;BME280;4395;48.554;8.820;2023-03-22T10:47:48;95528.53;;;18.98;44.24
8717;BME280;4395;48.554;8.820;2023-03-22T10:49:54;95536.31;;;19.21;43.18
8717;BME280;4395;48.554;8.820;2023-03-22T10:52:03;95529.97;;;18.95;43.72
8717;BME280;4395;48.554;8.820;2023-03-22T10:54:11;95537.34;;;18.94;43.84
8717;BME280;4395;48.554;8.820;2023-03-22T10:56:17;95531.03;;;18.54;43.61
8717;BME280;4395;48.554;8.820;2023-03-22T10:58:25;95518.56;;;18.31;45.12
8717;BME280;4395;48.554;8.820;2023-03-22T11:00:31;95520.75;;;18.51;44.48
8717;BME280;4395;48.554;8.820;2023-03-22T11:02:34;95524.84;;;18.40;44.57
8717;BME280;4395;48.554;8.820;2023-03-22T11:04:37;95517.88;;;18.48;45.38
8717;BME280;4395;48.554;8.820;2023-03-22T11:06:47;95521.63;;;18.91;44.42
8717;BME280;4395;48.554;8.820;2023-03-22T11:08:52;95530.97;;;19.08;43.99
8717;BME280;4395;48.554;8.820;2023-03-22T11:10:55;95530.66;;;19.09;43.90
8717;BME280;4395;48.554;8.820;2023-03-22T11:13:15;95495.91;;;19.06;42.46
8717;BME280;4395;48.554;8.820;2023-03-22T11:15:25;95526.28;;;19.39;41.46
8717;BME280;4395;48.554;8.820;2023-03-22T11:17:31;95523.31;;;19.75;41.91
8717;BME280;4395;48.554;8.820;2023-03-22T11:19:35;95524.94;;;18.26;42.80
8717;BME280;4395;48.554;8.820;2023-03-22T11:21:40;95528.53;;;19.46;43.66
8717;BME280;4395;48.554;8.820;2023-03-22T11:23:50;95524.59;;;19.95;41.48
8717;BME280;4395;48.554;8.820;2023-03-22T11:25:59;95525.88;;;20.15;40.15
8717;BME280;4395;48.554;8.820;2023-03-22T11:28:08;95523.16;;;19.72;41.24
8717;BME280;4395;48.554;8.820;2023-03-22T11:30:18;95511.88;;;18.37;42.49
8717;BME280;4395;48.554;8.820;2023-03-22T11:32:25;95497.59;;;18.85;42.47
8717;BME280;4395;48.554;8.820;2023-03-22T11:34:30;95517.31;;;19.47;41.85
8717;BME280;4395;48.554;8.820;2023-03-22T11:36:41;95515.91;;;19.02;42.37
8717;BME280;4395;48.554;8.820;2023-03-22T11:38:45;95526.53;;;19.20;42.45